LGSRLGMK

Guest
Details From LGSR - SANTORINI
To LGMK - Mikonos
Flight Number -
Tags generated
Created
Modified
Stats Distance 63 nm / 116 km
Max Altitude 3,100 ft / 945 m
Waypoints 3
Social Downloads 1
Likes 0
Share VATSIM

Download

Looking for another format? Having issues loading an existing format? Contact us
Advertisement - Login to hide

Notes

Basic altitude profile: - Ascent Rate: 2500ft/min - Ascent Speed: 250kts - Cruise Altitude: 35000ft - Cruise Speed: 420kts - Descent Rate: 1500ft/min - Descent Speed: 250kts

Route

LGSR NITSA LGMK

ID Type Via Altitude Latitude Longitude Leg Dist Tot Dist Heading (true) Name
O LGSR APT - 0 ft / 0 m 36.39895˚ 25.47851˚ - 0 nm - SANTORINI
NITSA FIX - 3,100 ft / 945 m 37.19083˚ 25.37778˚ 47 nm 47 nm 354° / 354° -
O LGMK APT - 0 ft / 0 m 37.43539˚ 25.34814˚ 14 nm 62 nm 355° / 354° Mikonos

Altitude Profile

Advertisement - Login to hide

LGSR

Details ICAO LGSR (JTR)
Name SANTORINI
Region Greece
Timezone Europe/Athens (UTC+3.0)
Stats Elevation 127 ft / 39 m (AMSL)
Location 36.398949° 25.478507°
Runways 2
Magnetic Variation 4.554° E

METAR

LGSR 230950Z 04010KT CAVOK 23/17 Q1017 RMK SCT180 BLU

Decode

TAF

TAF LGSR 230500Z 2306/2406 36013KT 9999 FEW020 BECMG 2316/2318 09010KT

Decode

Departure Runways

ID Width Length Bearing (true) Bearing (mag) Surface Threshold Offset Overrun Length
16L 98 ft / 30 m 6,978 ft / 2,127 m 159.53° 154.98° Asphalt 0 ft / 0 m 909 ft / 277 m
16R 98 ft / 30 m 6,969 ft / 2,124 m 159.56° 155.01° Asphalt 0 ft / 0 m 420 ft / 128 m
34L 98 ft / 30 m 6,969 ft / 2,124 m 339.56° 335.01° Asphalt 0 ft / 0 m 0 ft / 0 m
34R 98 ft / 30 m 6,978 ft / 2,127 m 339.54° 334.99° Asphalt 0 ft / 0 m 0 ft / 0 m

LGMK

Details ICAO LGMK (JMK)
Name Mikonos
Region Greece
Timezone Europe/Athens (UTC+3.0)
Stats Elevation 405 ft / 123 m (AMSL)
Location 37.435385° 25.348138°
Runways 1
Magnetic Variation 4.643° E

METAR

LGMK 230950Z 01020KT 9999 FEW007 24/16 Q1017

Decode

TAF

Not found

Destination Runways

ID Width Length Bearing (true) Bearing (mag) Surface Threshold Offset Overrun Length
16 98 ft / 30 m 6,423 ft / 1,958 m 160.63° 155.99° Asphalt 0 ft / 0 m 200 ft / 61 m
34 98 ft / 30 m 6,423 ft / 1,958 m 340.63° 335.99° Asphalt 0 ft / 0 m 200 ft / 61 m

Popular Alternatives